createdAt,value
2023-05-15T00:01:32.662Z,17.35
2023-05-15T00:03:59.451Z,16.92
2023-05-15T00:06:26.418Z,17.23
2023-05-15T00:08:53.192Z,17.51
2023-05-15T00:11:21.446Z,17.53
2023-05-15T00:13:48.145Z,17.46
2023-05-15T00:16:14.987Z,17.31
2023-05-15T00:18:41.928Z,17.36
2023-05-15T00:21:09.061Z,16.92
2023-05-15T00:23:35.835Z,17.29
2023-05-15T00:26:02.808Z,17.24
2023-05-15T00:28:29.492Z,17.23
2023-05-15T00:30:56.306Z,17.19
2023-05-15T00:33:23.089Z,16.65
2023-05-15T00:35:49.800Z,17.38
2023-05-15T00:38:16.951Z,16.50
2023-05-15T00:40:44.069Z,16.65
2023-05-15T00:43:12.572Z,17.06
2023-05-15T00:45:41.331Z,16.69
2023-05-15T00:48:10.030Z,17.00
2023-05-15T00:50:37.333Z,17.05
2023-05-15T00:53:05.474Z,16.89
2023-05-15T00:55:33.921Z,16.57
2023-05-15T00:58:01.393Z,16.73
2023-05-15T01:00:28.598Z,16.42
2023-05-15T01:02:55.568Z,16.74
2023-05-15T01:05:22.816Z,16.71
2023-05-15T01:08:17.126Z,16.86
2023-05-15T01:10:44.461Z,17.03
2023-05-15T01:13:11.701Z,16.96
2023-05-15T01:15:38.633Z,16.44
2023-05-15T01:18:06.133Z,17.00
2023-05-15T01:20:58.375Z,15.91
2023-05-15T01:23:28.071Z,16.59
2023-05-15T01:26:17.019Z,16.32
2023-05-15T01:28:49.158Z,16.15
2023-05-15T01:31:19.210Z,16.47
2023-05-15T01:33:47.746Z,16.50
2023-05-15T01:36:31.739Z,16.78
2023-05-15T01:39:01.755Z,16.48
2023-05-15T01:41:30.319Z,16.92
2023-05-15T01:44:08.279Z,16.60
2023-05-15T01:46:38.825Z,16.56
2023-05-15T01:49:08.615Z,16.82
2023-05-15T04:45:07.302Z,15.77
2023-05-15T04:47:34.493Z,15.52
2023-05-15T04:50:01.409Z,15.60
2023-05-15T04:52:28.664Z,15.51
2023-05-15T04:54:56.131Z,15.19
2023-05-15T04:57:23.121Z,15.90
2023-05-15T04:59:50.253Z,15.88
2023-05-15T05:02:21.355Z,15.64
2023-05-15T05:04:48.368Z,15.67
2023-05-15T05:07:15.778Z,15.87
2023-05-15T05:09:42.750Z,16.12
2023-05-15T05:12:09.738Z,16.11
2023-05-15T05:14:36.781Z,16.21
2023-05-15T05:17:03.864Z,16.11
2023-05-15T05:19:31.472Z,15.56
2023-05-15T05:22:01.397Z,15.65
2023-05-15T05:24:28.578Z,16.01
2023-05-15T05:26:58.112Z,16.05
2023-05-15T05:29:25.402Z,15.93
2023-05-15T05:31:52.586Z,15.89
2023-05-15T05:34:20.152Z,15.83
2023-05-15T05:36:46.879Z,15.33
2023-05-15T05:39:14.030Z,15.48
2023-05-15T05:41:40.743Z,15.66
2023-05-15T05:44:07.612Z,15.36
2023-05-15T05:46:34.842Z,15.67
2023-05-15T05:49:01.802Z,15.24
2023-05-15T05:51:28.643Z,15.58
2023-05-15T05:53:55.446Z,15.82
2023-05-15T05:56:22.736Z,16.06
2023-05-15T05:58:49.621Z,16.29
2023-05-15T06:01:16.567Z,16.25
2023-05-15T06:03:43.848Z,16.42
2023-05-15T06:06:10.863Z,16.09
2023-05-15T06:08:37.530Z,15.95
2023-05-15T06:11:05.236Z,16.12
2023-05-15T06:13:32.488Z,16.32
2023-05-15T06:15:59.424Z,15.77
2023-05-15T06:18:26.217Z,16.11
2023-05-15T06:20:53.578Z,15.77
2023-05-15T06:23:22.395Z,15.19
2023-05-15T06:25:50.454Z,15.74
2023-05-15T06:28:17.290Z,15.63
2023-05-15T06:30:44.027Z,15.35
2023-05-15T06:33:10.805Z,15.22
2023-05-15T06:35:37.528Z,15.36
2023-05-15T06:38:04.795Z,15.38
2023-05-15T06:40:31.724Z,15.59
2023-05-15T06:42:59.029Z,15.80
2023-05-15T06:45:27.339Z,15.87
2023-05-15T06:47:54.475Z,16.22
2023-05-15T06:50:21.347Z,16.04
2023-05-15T06:52:48.594Z,16.19
2023-05-15T06:55:15.400Z,16.01
2023-05-15T06:57:42.279Z,16.26
2023-05-15T07:00:17.332Z,15.94
2023-05-15T07:02:45.001Z,16.00
2023-05-15T07:05:11.942Z,15.70
2023-05-15T07:07:38.873Z,15.58
2023-05-15T07:10:06.318Z,15.83
2023-05-15T07:12:34.215Z,16.68
2023-05-15T07:15:00.926Z,15.34
2023-05-15T07:17:30.363Z,16.24
2023-05-15T07:19:57.295Z,16.26
2023-05-15T07:22:27.104Z,16.65
2023-05-15T07:24:53.820Z,16.21
2023-05-15T07:27:20.697Z,16.61
2023-05-15T07:29:47.400Z,16.98
2023-05-15T07:32:14.303Z,16.97
2023-05-15T07:34:42.700Z,16.48
2023-05-15T07:37:09.915Z,16.18
2023-05-15T07:39:36.798Z,16.11
2023-05-15T07:42:03.972Z,15.84
2023-05-15T07:44:30.754Z,16.45
2023-05-15T07:46:58.832Z,16.70
2023-05-15T07:49:25.724Z,16.49
2023-05-15T07:51:52.531Z,15.64
2023-05-15T07:54:19.356Z,15.77
2023-05-15T07:56:46.127Z,15.99
2023-05-15T07:59:13.144Z,16.48
2023-05-15T08:01:40.188Z,16.11
2023-05-15T08:04:09.041Z,17.25
2023-05-15T08:06:38.262Z,16.13
2023-05-15T08:09:05.130Z,16.20
2023-05-15T08:11:31.886Z,16.65
2023-05-15T08:13:58.754Z,16.18
2023-05-15T08:16:25.862Z,17.07
2023-05-15T08:18:55.759Z,17.44
2023-05-15T08:21:22.612Z,17.82
2023-05-15T08:23:49.266Z,17.34
2023-05-15T08:26:16.066Z,16.81
2023-05-15T08:28:42.720Z,16.94
2023-05-15T08:31:09.516Z,16.86
2023-05-15T08:33:36.408Z,18.18
2023-05-15T08:36:03.344Z,17.74
2023-05-15T08:38:30.566Z,17.49
2023-05-15T08:40:59.780Z,16.92
2023-05-15T08:43:27.251Z,18.41
2023-05-15T08:45:54.614Z,19.08
2023-05-15T08:48:22.024Z,18.78
2023-05-15T08:50:49.525Z,19.41
2023-05-15T08:53:16.423Z,18.19
2023-05-15T08:55:43.477Z,19.64
2023-05-15T08:58:10.381Z,19.54
2023-05-15T09:00:38.050Z,19.70
2023-05-15T09:03:05.510Z,19.70
2023-05-15T09:05:32.700Z,20.06
2023-05-15T09:08:02.187Z,19.80
2023-05-15T09:10:29.721Z,19.90
2023-05-15T09:12:57.504Z,19.26
2023-05-15T09:15:25.725Z,18.48
2023-05-15T09:17:52.922Z,19.46
2023-05-15T09:20:37.558Z,19.82
2023-05-15T09:23:06.252Z,19.61
2023-05-15T09:25:38.275Z,19.30
2023-05-15T09:28:29.642Z,19.26
2023-05-15T09:31:04.541Z,18.94
2023-05-15T09:33:32.540Z,18.69
2023-05-15T09:35:59.685Z,19.64
2023-05-15T09:38:27.052Z,19.93
2023-05-15T09:41:04.886Z,19.71
2023-05-15T09:43:37.408Z,19.70
2023-05-15T09:46:05.359Z,19.81
2023-05-15T10:05:09.586Z,20.14
2023-05-15T10:07:37.118Z,20.46
2023-05-15T10:10:05.374Z,20.06
2023-05-15T10:12:32.664Z,20.31
2023-05-15T10:15:01.141Z,21.14
2023-05-15T10:17:28.914Z,20.81
2023-05-15T10:19:59.608Z,20.76
2023-05-15T10:22:29.824Z,21.03
2023-05-15T10:25:01.569Z,21.14
2023-05-15T10:27:29.161Z,20.60
2023-05-15T10:29:57.471Z,21.17
2023-05-15T10:32:25.592Z,21.04
2023-05-15T10:34:52.992Z,20.89
2023-05-15T10:37:20.042Z,21.37
2023-05-15T10:39:47.792Z,21.54
2023-05-15T10:42:15.356Z,21.55
2023-05-15T10:44:42.199Z,21.73
2023-05-15T10:47:09.421Z,21.09
2023-05-15T10:49:36.345Z,21.00
2023-05-15T10:52:03.591Z,21.02
2023-05-15T10:54:31.934Z,21.17
2023-05-15T10:56:58.831Z,20.86
2023-05-15T10:59:33.274Z,20.61
2023-05-15T11:02:26.111Z,20.78
2023-05-15T11:04:57.515Z,20.63
2023-05-15T11:07:24.614Z,20.85
2023-05-15T11:09:53.117Z,20.81
2023-05-15T11:12:20.168Z,20.39
2023-05-15T11:14:55.973Z,20.95
2023-05-15T11:17:26.789Z,20.50
2023-05-15T11:19:53.646Z,20.61
2023-05-15T11:22:23.735Z,20.24
2023-05-15T11:24:54.982Z,20.45
2023-05-15T11:27:28.849Z,20.03
2023-05-15T11:30:08.591Z,19.98
2023-05-15T11:32:51.884Z,19.69
2023-05-15T11:35:23.076Z,19.30
2023-05-15T11:37:54.813Z,19.48
2023-05-15T11:40:27.639Z,19.86
2023-05-15T11:43:31.759Z,20.00
2023-05-15T11:46:07.763Z,19.82
2023-05-15T11:48:42.106Z,19.84
2023-05-15T11:51:23.988Z,19.58
2023-05-15T11:53:52.749Z,20.13
2023-05-15T11:56:20.083Z,19.85
2023-05-15T11:58:57.019Z,20.14
2023-05-15T12:01:24.146Z,19.85
2023-05-15T12:03:51.762Z,20.02
2023-05-15T12:06:19.057Z,19.75
2023-05-15T12:08:51.651Z,19.81
2023-05-15T12:11:22.575Z,19.73
2023-05-15T12:13:54.240Z,19.65
2023-05-15T12:16:28.260Z,19.54
2023-05-15T12:18:57.432Z,19.27
2023-05-15T12:21:27.126Z,19.62
2023-05-15T12:26:28.223Z,19.51
2023-05-15T12:28:55.712Z,19.43
2023-05-15T12:31:22.833Z,19.33
2023-05-15T12:33:50.204Z,19.91
2023-05-15T12:36:20.940Z,19.40
2023-05-15T12:38:48.864Z,20.07
2023-05-15T12:41:15.783Z,19.97
2023-05-15T12:43:42.922Z,19.66
2023-05-15T12:46:10.080Z,19.18
2023-05-15T12:48:37.188Z,19.36
2023-05-15T12:51:07.981Z,19.45
2023-05-15T12:53:35.772Z,19.13
2023-05-15T12:56:03.150Z,19.71
2023-05-15T12:58:30.442Z,18.88
2023-05-15T13:00:57.363Z,19.23
2023-05-15T13:03:25.136Z,19.45
2023-05-15T13:05:52.506Z,19.60
2023-05-15T13:08:19.660Z,19.71
2023-05-15T13:10:47.901Z,19.04
2023-05-15T13:13:15.559Z,18.71
2023-05-15T13:15:45.836Z,18.61
2023-05-15T13:18:14.508Z,18.05
2023-05-15T13:20:43.431Z,18.63
2023-05-15T13:23:12.287Z,18.42
2023-05-15T13:25:39.195Z,18.21
2023-05-15T13:28:07.231Z,18.09
2023-05-15T13:30:34.846Z,18.48
2023-05-15T13:33:03.671Z,18.21
2023-05-15T13:35:30.999Z,17.96
2023-05-15T13:37:57.878Z,18.49
2023-05-15T13:40:24.837Z,18.01
2023-05-15T13:42:52.163Z,17.39
2023-05-15T13:45:19.098Z,18.22
2023-05-15T13:47:45.822Z,18.07
2023-05-15T13:50:14.658Z,18.04
2023-05-15T13:52:42.994Z,17.75
2023-05-15T13:55:11.668Z,17.95
2023-05-15T13:57:42.267Z,17.91
2023-05-15T14:00:12.819Z,17.78
2023-05-15T14:02:43.850Z,18.12
2023-05-15T14:05:13.102Z,18.37
2023-05-15T14:07:40.107Z,18.41
2023-05-15T14:10:08.172Z,18.38
2023-05-15T14:12:35.173Z,17.75
2023-05-15T14:15:02.258Z,17.82
2023-05-15T14:17:29.152Z,18.30
2023-05-15T14:19:56.158Z,17.81
2023-05-15T14:22:25.098Z,17.82
2023-05-15T14:24:53.249Z,18.01
2023-05-15T14:27:20.545Z,17.43
2023-05-15T14:29:49.232Z,17.85
2023-05-15T14:32:16.905Z,17.25
2023-05-15T14:34:44.134Z,17.19
2023-05-15T14:37:11.103Z,17.28
2023-05-15T14:39:38.984Z,17.40
2023-05-15T14:42:06.411Z,17.55
2023-05-15T14:44:33.853Z,17.47
2023-05-15T14:47:15.251Z,17.56
2023-05-15T14:49:43.116Z,17.48
2023-05-15T14:52:11.611Z,17.25
2023-05-15T14:54:40.218Z,17.06
2023-05-15T14:57:07.736Z,17.06
2023-05-15T14:59:34.671Z,16.51
2023-05-15T15:02:01.743Z,16.78
2023-05-15T15:04:30.574Z,16.94
2023-05-15T15:06:58.221Z,16.98
2023-05-15T15:09:28.373Z,16.83
2023-05-15T15:11:56.389Z,17.14
2023-05-15T15:14:23.229Z,17.18
2023-05-15T15:16:50.230Z,16.91
2023-05-15T15:19:19.932Z,17.35
2023-05-15T15:21:48.138Z,17.17
2023-05-15T15:24:15.337Z,17.35
2023-05-15T15:26:42.529Z,17.24
2023-05-15T15:29:09.304Z,17.05
2023-05-15T15:31:36.181Z,17.39
2023-05-15T15:34:05.321Z,17.68
2023-05-15T15:36:32.857Z,17.50
2023-05-15T15:38:59.722Z,17.41
2023-05-15T15:41:26.578Z,17.42
2023-05-15T15:43:54.000Z,17.31
2023-05-15T15:46:25.054Z,17.25
2023-05-15T15:48:52.186Z,16.97
2023-05-15T15:51:19.105Z,17.05
2023-05-15T15:53:46.283Z,17.19
2023-05-15T15:56:13.105Z,17.37
2023-05-15T15:58:40.220Z,17.16
2023-05-15T16:01:08.017Z,17.38
2023-05-15T16:03:35.148Z,17.51
2023-05-15T16:06:03.450Z,17.34
2023-05-15T16:08:30.187Z,16.93
2023-05-15T16:10:57.237Z,17.12
2023-05-15T16:13:24.051Z,17.38
2023-05-15T16:15:50.929Z,17.43
2023-05-15T16:18:20.210Z,17.58
2023-05-15T16:20:48.015Z,17.35
2023-05-15T16:23:18.027Z,17.40
2023-05-15T16:25:44.997Z,17.62
2023-05-15T16:28:12.217Z,16.99
2023-05-15T16:33:09.155Z,17.62
2023-05-15T16:35:39.346Z,17.34
2023-05-15T16:38:06.171Z,17.52
2023-05-15T16:40:33.238Z,17.44
2023-05-15T16:43:00.148Z,17.87
2023-05-15T16:45:27.085Z,17.81
2023-05-15T16:47:54.360Z,17.26
2023-05-15T16:50:21.268Z,17.35
2023-05-15T16:52:48.963Z,17.75
2023-05-15T16:55:19.473Z,17.50
2023-05-15T16:57:46.823Z,17.31
2023-05-15T17:00:15.971Z,17.54
2023-05-15T17:02:44.059Z,17.30
2023-05-15T17:05:11.794Z,16.84
2023-05-15T17:07:39.063Z,17.21
2023-05-15T17:10:07.865Z,17.65
2023-05-15T17:12:35.265Z,17.70
2023-05-15T17:15:03.043Z,17.73
2023-05-15T17:17:29.929Z,16.98
2023-05-15T17:19:57.307Z,17.20
2023-05-15T17:22:24.306Z,16.91
2023-05-15T17:24:52.190Z,16.80
2023-05-15T17:27:19.628Z,17.14
2023-05-15T17:29:48.021Z,17.19
2023-05-15T17:32:16.803Z,17.22
2023-05-15T17:34:45.028Z,17.12
2023-05-15T17:37:11.994Z,17.01
2023-05-15T17:39:39.045Z,16.87
2023-05-15T17:42:08.381Z,17.03
2023-05-15T17:44:35.102Z,16.86
2023-05-15T17:47:02.016Z,16.81
2023-05-15T17:49:29.826Z,16.88
2023-05-15T17:51:56.737Z,16.86
2023-05-15T17:54:37.634Z,16.98
2023-05-15T17:57:04.959Z,17.19
2023-05-15T17:59:31.820Z,17.32
2023-05-15T18:01:59.330Z,17.25
2023-05-15T18:04:26.244Z,17.34
2023-05-15T18:06:53.082Z,17.07
2023-05-15T18:09:24.268Z,16.89
2023-05-15T18:11:51.867Z,17.28
2023-05-15T18:14:19.383Z,17.19
2023-05-15T18:16:46.148Z,17.03
2023-05-15T18:19:12.968Z,16.70
2023-05-15T18:21:39.869Z,16.70
2023-05-15T18:24:06.885Z,16.48
2023-05-15T18:26:33.755Z,16.75
2023-05-15T18:29:00.560Z,16.59
2023-05-15T18:31:27.655Z,15.95
2023-05-15T18:33:54.439Z,16.64
2023-05-15T18:36:21.240Z,16.68
2023-05-15T18:38:47.965Z,16.77
2023-05-15T18:41:14.978Z,16.49
2023-05-15T18:43:42.135Z,16.68
2023-05-15T18:46:09.012Z,16.25
2023-05-15T18:48:35.824Z,16.36
2023-05-15T18:51:02.788Z,16.48
2023-05-15T18:53:33.475Z,16.48
2023-05-15T18:56:08.300Z,16.58
2023-05-15T18:58:50.331Z,16.29
2023-05-15T19:01:34.167Z,16.62
2023-05-15T19:04:01.041Z,16.34
2023-05-15T19:06:28.185Z,16.47
2023-05-15T19:08:55.124Z,15.97
2023-05-15T19:14:25.116Z,15.90
2023-05-15T19:16:52.423Z,15.94
2023-05-15T19:19:19.532Z,16.26
2023-05-15T19:21:47.582Z,16.08
2023-05-15T19:24:14.462Z,16.06
2023-05-15T19:26:42.127Z,15.81
2023-05-15T19:29:09.082Z,15.73
2023-05-15T19:31:38.197Z,16.01
2023-05-15T19:34:05.138Z,15.58
2023-05-15T19:36:31.848Z,15.58
2023-05-15T19:38:58.759Z,15.54
2023-05-15T19:41:25.725Z,15.62
2023-05-15T19:43:54.415Z,15.65
2023-05-15T19:46:21.244Z,15.84
2023-05-15T19:48:50.428Z,15.74
2023-05-15T19:51:17.745Z,15.89
2023-05-15T19:53:44.928Z,15.51
2023-05-15T19:56:13.737Z,15.76
2023-05-15T19:58:40.569Z,15.89
2023-05-15T20:01:08.358Z,16.09
2023-05-15T20:03:35.498Z,15.72
2023-05-15T20:06:02.930Z,15.73
2023-05-15T20:08:29.810Z,15.87
2023-05-15T20:10:57.275Z,15.81
2023-05-15T20:13:24.783Z,15.81
2023-05-15T20:15:57.266Z,15.73
2023-05-15T20:18:28.710Z,15.83
2023-05-15T20:20:56.121Z,16.08
2023-05-15T20:23:23.260Z,15.80
2023-05-15T20:25:51.449Z,16.02
2023-05-15T20:53:49.969Z,16.06
2023-05-15T20:56:16.851Z,15.68
2023-05-15T20:58:43.563Z,15.96
2023-05-15T21:01:10.408Z,16.13
2023-05-15T21:03:37.563Z,15.70
2023-05-15T21:06:04.782Z,15.88
2023-05-15T21:08:34.027Z,15.61
2023-05-15T21:11:01.868Z,15.78
2023-05-15T21:13:28.933Z,15.74
2023-05-15T21:15:55.991Z,15.55
2023-05-15T21:18:22.725Z,15.78
2023-05-15T21:20:49.455Z,15.86
2023-05-15T21:23:16.703Z,15.90
2023-05-15T21:25:44.121Z,15.60
2023-05-15T21:28:11.329Z,15.76
2023-05-15T21:30:38.418Z,15.60
2023-05-15T21:33:05.447Z,15.65
2023-05-15T21:35:32.374Z,15.41
2023-05-15T21:38:00.503Z,15.41
2023-05-15T21:40:30.303Z,15.46
2023-05-15T21:42:57.257Z,15.46
2023-05-15T21:45:24.191Z,15.43
2023-05-15T21:47:51.096Z,15.39
2023-05-15T21:50:18.116Z,15.53
2023-05-15T21:52:44.968Z,15.26
2023-05-15T21:55:16.041Z,15.40
2023-05-15T21:57:45.659Z,15.53
2023-05-15T22:00:14.082Z,15.58
2023-05-15T22:02:41.081Z,15.78
2023-05-15T22:05:08.699Z,15.54
2023-05-15T22:07:35.636Z,15.76
2023-05-15T22:10:03.773Z,15.58
2023-05-15T22:12:32.307Z,15.63
2023-05-15T22:15:00.011Z,15.62
2023-05-15T22:17:30.771Z,15.47
2023-05-15T22:20:08.299Z,15.43
2023-05-15T22:22:36.123Z,15.29
2023-05-15T22:25:03.505Z,14.95
2023-05-15T22:27:30.467Z,15.23
2023-05-15T22:29:57.392Z,15.41
2023-05-15T22:32:25.132Z,15.18
2023-05-15T22:34:52.144Z,15.43
2023-05-15T22:37:19.310Z,15.20
2023-05-15T22:39:46.388Z,15.48
2023-05-15T22:42:13.575Z,15.17
2023-05-15T22:44:40.403Z,15.26
2023-05-15T22:47:08.035Z,15.17
2023-05-15T22:49:34.945Z,15.12
2023-05-15T22:52:01.911Z,15.14
2023-05-15T22:54:28.678Z,15.01
2023-05-15T22:56:55.405Z,15.37
2023-05-15T22:59:22.493Z,15.10
2023-05-15T23:01:50.160Z,15.04
2023-05-15T23:04:17.550Z,14.74
2023-05-15T23:06:44.693Z,15.01
2023-05-15T23:09:11.863Z,14.92
2023-05-15T23:11:38.873Z,15.00
2023-05-15T23:14:08.385Z,14.86
2023-05-15T23:16:35.751Z,15.13
2023-05-15T23:19:03.533Z,15.05
2023-05-15T23:21:30.323Z,15.11
2023-05-15T23:24:01.638Z,14.73
2023-05-15T23:26:28.688Z,14.94
2023-05-15T23:28:58.455Z,14.94
2023-05-15T23:31:26.338Z,14.88
2023-05-15T23:33:53.290Z,15.03
2023-05-15T23:36:20.256Z,14.77
2023-05-15T23:38:47.041Z,14.61
2023-05-15T23:41:14.329Z,14.96
2023-05-15T23:43:41.155Z,14.66
2023-05-15T23:46:10.750Z,14.92
2023-05-15T23:48:37.660Z,14.99
2023-05-15T23:51:04.806Z,14.97
2023-05-15T23:53:31.841Z,15.00
2023-05-15T23:55:58.628Z,15.17
2023-05-15T23:58:25.631Z,15.02
